createdAt,value
2023-02-05T00:03:50.534Z,-2.5
2023-02-05T00:09:29.024Z,-2.5
2023-02-05T00:14:51.919Z,-2.6
2023-02-05T00:20:29.163Z,-2.6
2023-02-05T00:26:08.258Z,-2.7
2023-02-05T00:31:47.214Z,-2.8
2023-02-05T00:37:24.976Z,-2.8
2023-02-05T00:43:03.564Z,-2.8
2023-02-05T00:48:41.241Z,-2.8
2023-02-05T00:54:19.807Z,-2.9
2023-02-05T00:59:59.208Z,-2.9
2023-02-05T01:05:36.957Z,-2.9
2023-02-05T01:11:14.203Z,-2.9
2023-02-05T01:16:52.982Z,-3
2023-02-05T01:22:30.722Z,-3
2023-02-05T01:28:09.030Z,-3
2023-02-05T01:33:48.312Z,-3.1
2023-02-05T01:39:26.024Z,-3.1
2023-02-05T01:44:48.588Z,-3.1
2023-02-05T01:50:41.612Z,-3.1
2023-02-05T01:56:18.420Z,-3.2
2023-02-05T02:01:55.249Z,-3.2
2023-02-05T02:07:34.005Z,-3.2
2023-02-05T02:13:12.020Z,-3.3
2023-02-05T02:18:49.227Z,-3.3
2023-02-05T02:24:27.619Z,-3.3
2023-02-05T02:29:50.832Z,-3.4
2023-02-05T02:35:28.741Z,-3.4
2023-02-05T02:41:07.125Z,-3.4
2023-02-05T02:46:30.084Z,-3.5
2023-02-05T02:52:07.647Z,-3.6
2023-02-05T02:57:15.223Z,-3.6
2023-02-05T03:02:42.610Z,-3.6
2023-02-05T03:07:50.007Z,-3.7
2023-02-05T03:18:19.798Z,-3.8
2023-02-05T03:23:41.975Z,-3.9
2023-02-05T03:29:20.850Z,-3.9
2023-02-05T03:34:42.929Z,-4
2023-02-05T03:40:21.461Z,-4.1
2023-02-05T03:46:00.204Z,-4.1
2023-02-05T03:51:43.792Z,-4.2
2023-02-05T03:57:05.353Z,-4.2
2023-02-05T04:02:43.715Z,-4.3
2023-02-05T04:08:05.667Z,-4.3
2023-02-05T04:13:29.471Z,-4.3
2023-02-05T04:18:52.347Z,-4.3
2023-02-05T04:24:14.882Z,-4.4
2023-02-05T04:29:53.140Z,-4.4
2023-02-05T04:35:32.170Z,-4.4
2023-02-05T04:41:09.919Z,-4.4
2023-02-05T04:46:32.162Z,-4.5
2023-02-05T04:52:09.675Z,-4.6
2023-02-05T04:57:47.647Z,-4.6
2023-02-05T05:03:09.876Z,-4.6
2023-02-05T05:08:48.060Z,-4.6
2023-02-05T05:14:10.181Z,-4.7
2023-02-05T05:19:48.972Z,-4.7
2023-02-05T05:25:27.269Z,-4.8
2023-02-05T05:31:04.619Z,-4.8
2023-02-05T05:36:42.614Z,-4.8
2023-02-05T05:42:20.886Z,-4.8
2023-02-05T05:47:58.922Z,-4.9
2023-02-05T05:53:35.930Z,-4.9
2023-02-05T05:59:14.787Z,-4.9
2023-02-05T06:04:52.384Z,-4.9
2023-02-05T06:10:30.530Z,-4.9
2023-02-05T06:15:55.765Z,-4.9
2023-02-05T06:21:33.860Z,-4.8
2023-02-05T06:27:11.344Z,-4.8
2023-02-05T06:32:50.666Z,-4.7
2023-02-05T06:38:42.535Z,-4.6
2023-02-05T06:44:20.855Z,-4.6
2023-02-05T06:49:59.493Z,-4.5
2023-02-05T06:55:21.971Z,-4.4
2023-02-05T07:00:59.890Z,-4.3
2023-02-05T07:06:38.460Z,-4.2
2023-02-05T07:12:17.109Z,-4.1
2023-02-05T07:17:39.474Z,-3.9
2023-02-05T07:28:40.411Z,-3.5
2023-02-05T07:34:18.492Z,-3.3
2023-02-05T07:39:41.771Z,-2.9
2023-02-05T07:45:19.629Z,-2.6
2023-02-05T07:50:43.092Z,-2.3
2023-02-05T07:56:21.244Z,-1.9
2023-02-05T08:02:13.551Z,-1.5
2023-02-05T08:07:52.133Z,-1.2
2023-02-05T08:13:31.324Z,-0.8
2023-02-05T08:19:16.084Z,-0.2
2023-02-05T08:24:53.728Z,0.4
2023-02-05T08:30:32.228Z,1.3
2023-02-05T08:35:54.841Z,2.1
2023-02-05T08:41:17.178Z,2.9
2023-02-05T08:47:06.891Z,4.1
2023-02-05T08:52:46.906Z,5.2
2023-02-05T08:58:25.447Z,6.2
2023-02-05T09:04:04.107Z,7.2
2023-02-05T09:22:35.323Z,9.7
2023-02-05T09:28:14.250Z,10.3
2023-02-05T09:33:52.518Z,10.8
2023-02-05T09:40:34.797Z,11
2023-02-05T09:46:14.550Z,11.1
2023-02-05T09:51:53.739Z,10.9
2023-02-05T09:57:33.420Z,10.5
2023-02-05T10:03:18.343Z,10.1
2023-02-05T10:08:55.640Z,9.9
2023-02-05T10:14:17.448Z,9.6
2023-02-05T10:19:56.538Z,9.4
2023-02-05T10:25:34.468Z,9.3
2023-02-05T10:31:13.099Z,9.3
2023-02-05T10:36:52.069Z,9.4
2023-02-05T10:42:13.703Z,9.4
2023-02-05T10:47:55.084Z,9.5
2023-02-05T10:53:33.693Z,9.6
2023-02-05T10:59:10.899Z,10
2023-02-05T11:04:49.644Z,10.8
2023-02-05T11:10:28.271Z,11.9
2023-02-05T11:15:52.232Z,12.9
2023-02-05T11:21:30.316Z,14.4
2023-02-05T11:27:08.966Z,15.8
2023-02-05T11:32:57.406Z,16.1
2023-02-05T11:38:34.612Z,15.9
2023-02-05T11:44:13.440Z,15.3
2023-02-05T11:49:51.756Z,14.8
2023-02-05T11:55:14.585Z,14.8
2023-02-05T12:01:04.251Z,17.1
2023-02-05T12:06:42.401Z,19.9
2023-02-05T12:12:19.931Z,19.2
2023-02-05T12:18:01.541Z,17.7
2023-02-05T12:23:38.429Z,16.3
2023-02-05T12:29:16.648Z,14.6
2023-02-05T12:34:40.747Z,13.5
2023-02-05T12:40:32.095Z,12.9
2023-02-05T12:45:55.049Z,12.8
2023-02-05T12:51:33.261Z,13.1
2023-02-05T12:57:10.687Z,13.5
2023-02-05T13:02:48.737Z,13.9
2023-02-05T13:08:27.711Z,13.9
2023-02-05T13:14:05.711Z,13.6
2023-02-05T13:19:44.709Z,12.9
2023-02-05T13:25:27.305Z,11.7
2023-02-05T13:31:07.657Z,10.3
2023-02-05T13:36:50.700Z,8.9
2023-02-05T13:42:32.581Z,7.9
2023-02-05T13:48:12.577Z,7.1
2023-02-05T13:53:50.423Z,6.1
2023-02-05T13:59:13.532Z,5.2
2023-02-05T14:04:52.377Z,4.6
2023-02-05T14:10:36.005Z,4.1
2023-02-05T14:16:20.462Z,3.5
2023-02-05T14:21:58.718Z,3
2023-02-05T14:27:23.950Z,2.6
2023-02-05T14:33:04.690Z,2
2023-02-05T14:38:37.661Z,1.6
2023-02-05T14:44:06.181Z,1.1
2023-02-05T14:49:45.139Z,0.6
2023-02-05T14:55:07.238Z,0.3
2023-02-05T15:00:45.701Z,-0.1
2023-02-05T15:05:55.863Z,-0.4
2023-02-05T15:11:33.901Z,-0.8
2023-02-05T15:17:12.286Z,-1.1
2023-02-05T15:22:40.953Z,-1.4
2023-02-05T15:28:19.553Z,-1.7
2023-02-05T15:33:42.319Z,-1.9
2023-02-05T15:39:20.629Z,-2.1
2023-02-05T15:44:58.412Z,-2.4
2023-02-05T15:50:36.103Z,-2.6
2023-02-05T15:56:14.432Z,-2.8
2023-02-05T16:01:36.886Z,-2.9
2023-02-05T16:07:15.471Z,-3.1
2023-02-05T16:12:38.737Z,-3.2
2023-02-05T16:18:01.857Z,-3.3
2023-02-05T16:23:39.705Z,-3.4
2023-02-05T16:29:02.890Z,-3.6
2023-02-05T16:34:54.450Z,-3.7
2023-02-05T16:45:55.375Z,-3.8
2023-02-05T16:51:33.556Z,-3.9
2023-02-05T16:56:56.165Z,-4
2023-02-05T17:02:35.860Z,-4.1
2023-02-05T17:07:58.531Z,-4.2
2023-02-05T17:13:21.509Z,-4.3
2023-02-05T17:19:00.289Z,-4.4
2023-02-05T17:24:22.377Z,-4.5
2023-02-05T17:30:00.313Z,-4.6
2023-02-05T17:35:39.410Z,-4.6
2023-02-05T17:41:20.324Z,-4.6
2023-02-05T17:47:01.691Z,-4.7
2023-02-05T17:52:40.231Z,-4.7
2023-02-05T17:57:47.367Z,-4.7
2023-02-05T18:03:09.972Z,-4.7
2023-02-05T18:08:48.916Z,-4.8
2023-02-05T18:14:11.399Z,-4.8
2023-02-05T18:19:34.566Z,-4.8
2023-02-05T18:25:13.612Z,-4.8
2023-02-05T18:30:39.513Z,-4.8
2023-02-05T18:36:02.384Z,-4.8
2023-02-05T18:41:42.509Z,-4.8
2023-02-05T18:47:05.331Z,-4.9
2023-02-05T18:52:45.880Z,-4.9
2023-02-05T18:58:08.848Z,-4.9
2023-02-05T19:03:31.644Z,-4.9
2023-02-05T19:09:09.318Z,-5
2023-02-05T19:14:49.207Z,-5
2023-02-05T19:20:28.715Z,-5
2023-02-05T19:26:07.249Z,-5.1
2023-02-05T19:31:46.382Z,-5.1
2023-02-05T19:37:24.542Z,-5.1
2023-02-05T19:43:02.119Z,-5.1
2023-02-05T19:48:40.997Z,-5.1
2023-02-05T19:54:04.299Z,-5.1
2023-02-05T19:59:27.885Z,-5.1
2023-02-05T20:04:53.123Z,-5.2
2023-02-05T20:10:31.089Z,-5.2
2023-02-05T20:16:10.231Z,-5.2
2023-02-05T20:22:02.509Z,-5.2
2023-02-05T20:27:41.075Z,-5.2
2023-02-05T20:33:19.844Z,-5.1
2023-02-05T20:38:58.112Z,-5.2
2023-02-05T20:44:36.672Z,-5.2
2023-02-05T20:55:51.712Z,-5.2
2023-02-05T21:01:31.120Z,-5.2
2023-02-05T21:07:10.224Z,-5.2
2023-02-05T21:12:48.008Z,-5.3
2023-02-05T21:18:26.317Z,-5.3
2023-02-05T21:23:33.410Z,-5.3
2023-02-05T21:28:57.701Z,-5.4
2023-02-05T21:34:36.029Z,-5.4
2023-02-05T21:40:26.123Z,-5.4
2023-02-05T21:45:48.721Z,-5.4
2023-02-05T21:51:11.188Z,-5.4
2023-02-05T21:56:49.363Z,-5.4
2023-02-05T22:02:12.115Z,-5.4
2023-02-05T22:07:19.715Z,-5.4
2023-02-05T22:12:44.266Z,-5.4
2023-02-05T22:18:22.770Z,-5.4
2023-02-05T22:24:01.076Z,-5.4
2023-02-05T22:29:39.719Z,-5.4
2023-02-05T22:35:03.141Z,-5.4
2023-02-05T22:40:41.813Z,-5.5
2023-02-05T22:46:20.079Z,-5.6
2023-02-05T22:51:42.356Z,-5.6
2023-02-05T22:57:20.573Z,-5.6
2023-02-05T23:03:01.990Z,-5.6
2023-02-05T23:08:24.511Z,-5.6
2023-02-05T23:13:49.751Z,-5.6
2023-02-05T23:19:27.413Z,-5.7
2023-02-05T23:25:05.482Z,-5.7
2023-02-05T23:30:43.874Z,-5.7
2023-02-05T23:36:07.261Z,-5.8
2023-02-05T23:41:45.234Z,-5.8
2023-02-05T23:47:23.577Z,-5.8
2023-02-05T23:53:00.636Z,-5.8
2023-02-05T23:58:41.022Z,-5.8
